sensor_id;sensor_type;location;lat;lon;timestamp;P1;durP1;ratioP1;P2;durP2;ratioP2
59161;SDS011;44942;48.936;8.260;2022-12-24T00:02:18;3.43;;;1.70;;
59161;SDS011;44942;48.936;8.260;2022-12-24T00:07:19;3.22;;;1.35;;
59161;SDS011;44942;48.936;8.260;2022-12-24T00:12:20;5.63;;;1.60;;
59161;SDS011;44942;48.936;8.260;2022-12-24T00:17:21;5.90;;;1.70;;
59161;SDS011;44942;48.936;8.260;2022-12-24T00:22:21;4.70;;;1.47;;
59161;SDS011;44942;48.936;8.260;2022-12-24T00:27:22;4.73;;;1.60;;
59161;SDS011;44942;48.936;8.260;2022-12-24T00:32:22;4.57;;;1.43;;
59161;SDS011;44942;48.936;8.260;2022-12-24T00:37:23;4.30;;;1.47;;
59161;SDS011;44942;48.936;8.260;2022-12-24T00:42:26;5.30;;;1.80;;
59161;SDS011;44942;48.936;8.260;2022-12-24T00:47:27;6.03;;;1.60;;
59161;SDS011;44942;48.936;8.260;2022-12-24T00:52:27;4.07;;;1.60;;
59161;SDS011;44942;48.936;8.260;2022-12-24T00:57:28;3.87;;;1.60;;
59161;SDS011;44942;48.936;8.260;2022-12-24T01:02:28;5.07;;;1.83;;
59161;SDS011;44942;48.936;8.260;2022-12-24T01:07:29;5.23;;;1.47;;
59161;SDS011;44942;48.936;8.260;2022-12-24T01:12:30;4.10;;;1.53;;
59161;SDS011;44942;48.936;8.260;2022-12-24T01:17:31;4.90;;;1.57;;
59161;SDS011;44942;48.936;8.260;2022-12-24T01:22:33;4.28;;;1.42;;
59161;SDS011;44942;48.936;8.260;2022-12-24T01:27:34;4.15;;;1.48;;
59161;SDS011;44942;48.936;8.260;2022-12-24T01:32:34;5.80;;;1.67;;
59161;SDS011;44942;48.936;8.260;2022-12-24T01:37:35;3.90;;;1.70;;
59161;SDS011;44942;48.936;8.260;2022-12-24T01:42:36;4.10;;;1.50;;
59161;SDS011;44942;48.936;8.260;2022-12-24T01:47:56;3.47;;;1.45;;
59161;SDS011;44942;48.936;8.260;2022-12-24T01:52:56;5.03;;;1.60;;
59161;SDS011;44942;48.936;8.260;2022-12-24T01:57:57;5.43;;;1.70;;
59161;SDS011;44942;48.936;8.260;2022-12-24T02:02:59;4.32;;;1.45;;
59161;SDS011;44942;48.936;8.260;2022-12-24T02:08:00;5.57;;;1.60;;
59161;SDS011;44942;48.936;8.260;2022-12-24T02:13:03;5.18;;;1.48;;
59161;SDS011;44942;48.936;8.260;2022-12-24T02:34:08;6.97;;;1.65;;
59161;SDS011;44942;48.936;8.260;2022-12-24T02:39:16;5.85;;;1.70;;
59161;SDS011;44942;48.936;8.260;2022-12-24T02:44:24;5.30;;;1.90;;
59161;SDS011;44942;48.936;8.260;2022-12-24T02:49:27;6.97;;;1.63;;
59161;SDS011;44942;48.936;8.260;2022-12-24T02:54:28;5.60;;;1.70;;
59161;SDS011;44942;48.936;8.260;2022-12-24T03:04:58;5.80;;;1.88;;
59161;SDS011;44942;48.936;8.260;2022-12-24T03:15:22;5.43;;;1.73;;
59161;SDS011;44942;48.936;8.260;2022-12-24T03:20:26;3.38;;;1.45;;
59161;SDS011;44942;48.936;8.260;2022-12-24T03:25:39;4.32;;;1.65;;
59161;SDS011;44942;48.936;8.260;2022-12-24T03:30:42;5.30;;;1.50;;
59161;SDS011;44942;48.936;8.260;2022-12-24T03:35:44;5.72;;;1.90;;
59161;SDS011;44942;48.936;8.260;2022-12-24T03:40:45;8.88;;;1.80;;
59161;SDS011;44942;48.936;8.260;2022-12-24T03:45:45;4.10;;;1.33;;
59161;SDS011;44942;48.936;8.260;2022-12-24T03:50:46;4.77;;;1.77;;
59161;SDS011;44942;48.936;8.260;2022-12-24T03:55:47;5.13;;;1.80;;
59161;SDS011;44942;48.936;8.260;2022-12-24T04:00:47;5.27;;;2.00;;
59161;SDS011;44942;48.936;8.260;2022-12-24T04:05:48;6.13;;;1.97;;
59161;SDS011;44942;48.936;8.260;2022-12-24T04:11:03;4.60;;;1.60;;
59161;SDS011;44942;48.936;8.260;2022-12-24T04:16:06;6.80;;;1.90;;
59161;SDS011;44942;48.936;8.260;2022-12-24T04:21:09;8.50;;;2.05;;
59161;SDS011;44942;48.936;8.260;2022-12-24T04:26:11;7.82;;;2.33;;
59161;SDS011;44942;48.936;8.260;2022-12-24T04:31:13;5.53;;;1.80;;
59161;SDS011;44942;48.936;8.260;2022-12-24T04:36:15;5.63;;;1.92;;
59161;SDS011;44942;48.936;8.260;2022-12-24T04:41:20;7.03;;;1.85;;
59161;SDS011;44942;48.936;8.260;2022-12-24T04:46:23;7.65;;;1.90;;
59161;SDS011;44942;48.936;8.260;2022-12-24T04:51:26;7.35;;;1.90;;
59161;SDS011;44942;48.936;8.260;2022-12-24T04:56:29;7.03;;;1.83;;
59161;SDS011;44942;48.936;8.260;2022-12-24T05:01:31;7.72;;;2.05;;
59161;SDS011;44942;48.936;8.260;2022-12-24T05:11:32;9.03;;;2.50;;
59161;SDS011;44942;48.936;8.260;2022-12-24T05:16:33;7.77;;;2.23;;
59161;SDS011;44942;48.936;8.260;2022-12-24T05:21:33;7.80;;;2.23;;
59161;SDS011;44942;48.936;8.260;2022-12-24T05:26:41;5.07;;;1.77;;
59161;SDS011;44942;48.936;8.260;2022-12-24T05:31:45;7.33;;;2.03;;
59161;SDS011;44942;48.936;8.260;2022-12-24T05:36:46;8.17;;;2.07;;
59161;SDS011;44942;48.936;8.260;2022-12-24T05:41:46;6.60;;;1.93;;
59161;SDS011;44942;48.936;8.260;2022-12-24T05:46:47;9.53;;;2.20;;
59161;SDS011;44942;48.936;8.260;2022-12-24T05:51:47;7.93;;;2.20;;
59161;SDS011;44942;48.936;8.260;2022-12-24T05:56:48;6.80;;;2.30;;
59161;SDS011;44942;48.936;8.260;2022-12-24T06:01:48;3.80;;;1.37;;
59161;SDS011;44942;48.936;8.260;2022-12-24T06:06:49;8.43;;;2.33;;
59161;SDS011;44942;48.936;8.260;2022-12-24T06:11:50;6.60;;;1.90;;
59161;SDS011;44942;48.936;8.260;2022-12-24T06:16:50;5.13;;;1.87;;
59161;SDS011;44942;48.936;8.260;2022-12-24T06:21:51;9.07;;;1.90;;
59161;SDS011;44942;48.936;8.260;2022-12-24T06:26:51;7.20;;;1.97;;
59161;SDS011;44942;48.936;8.260;2022-12-24T06:31:52;4.93;;;1.90;;
59161;SDS011;44942;48.936;8.260;2022-12-24T06:36:53;31.47;;;2.10;;
59161;SDS011;44942;48.936;8.260;2022-12-24T06:41:53;8.17;;;2.07;;
59161;SDS011;44942;48.936;8.260;2022-12-24T06:46:54;6.30;;;2.03;;
59161;SDS011;44942;48.936;8.260;2022-12-24T06:51:54;7.97;;;1.87;;
59161;SDS011;44942;48.936;8.260;2022-12-24T06:56:55;10.43;;;2.30;;
59161;SDS011;44942;48.936;8.260;2022-12-24T07:01:55;5.20;;;2.07;;
59161;SDS011;44942;48.936;8.260;2022-12-24T07:06:56;6.63;;;1.97;;
59161;SDS011;44942;48.936;8.260;2022-12-24T07:11:57;7.20;;;2.27;;
59161;SDS011;44942;48.936;8.260;2022-12-24T07:16:57;6.67;;;1.87;;
59161;SDS011;44942;48.936;8.260;2022-12-24T07:21:58;5.67;;;2.00;;
59161;SDS011;44942;48.936;8.260;2022-12-24T07:26:58;6.53;;;2.27;;
59161;SDS011;44942;48.936;8.260;2022-12-24T07:31:59;8.13;;;2.17;;
59161;SDS011;44942;48.936;8.260;2022-12-24T07:37:00;7.40;;;2.27;;
59161;SDS011;44942;48.936;8.260;2022-12-24T07:42:00;6.20;;;2.07;;
59161;SDS011;44942;48.936;8.260;2022-12-24T07:47:01;7.93;;;1.97;;
59161;SDS011;44942;48.936;8.260;2022-12-24T07:52:02;10.27;;;2.87;;
59161;SDS011;44942;48.936;8.260;2022-12-24T07:57:03;6.82;;;1.92;;
59161;SDS011;44942;48.936;8.260;2022-12-24T08:02:03;8.03;;;2.67;;
59161;SDS011;44942;48.936;8.260;2022-12-24T08:07:04;6.30;;;2.10;;
59161;SDS011;44942;48.936;8.260;2022-12-24T08:12:06;6.15;;;2.08;;
59161;SDS011;44942;48.936;8.260;2022-12-24T08:17:06;9.47;;;2.70;;
59161;SDS011;44942;48.936;8.260;2022-12-24T08:22:07;10.70;;;2.37;;
59161;SDS011;44942;48.936;8.260;2022-12-24T08:27:07;8.53;;;2.40;;
59161;SDS011;44942;48.936;8.260;2022-12-24T08:32:08;13.37;;;3.00;;
59161;SDS011;44942;48.936;8.260;2022-12-24T08:37:09;10.90;;;2.57;;
59161;SDS011;44942;48.936;8.260;2022-12-24T08:42:09;10.20;;;2.90;;
59161;SDS011;44942;48.936;8.260;2022-12-24T08:47:10;11.20;;;3.07;;
59161;SDS011;44942;48.936;8.260;2022-12-24T08:52:10;15.23;;;3.40;;
59161;SDS011;44942;48.936;8.260;2022-12-24T08:57:11;11.33;;;3.53;;
59161;SDS011;44942;48.936;8.260;2022-12-24T09:02:13;13.25;;;2.85;;
59161;SDS011;44942;48.936;8.260;2022-12-24T09:07:14;11.00;;;3.00;;
59161;SDS011;44942;48.936;8.260;2022-12-24T09:12:14;11.10;;;2.93;;
59161;SDS011;44942;48.936;8.260;2022-12-24T09:17:15;12.87;;;3.27;;
59161;SDS011;44942;48.936;8.260;2022-12-24T09:22:15;10.43;;;2.93;;
59161;SDS011;44942;48.936;8.260;2022-12-24T09:27:16;10.30;;;3.07;;
59161;SDS011;44942;48.936;8.260;2022-12-24T09:32:17;13.40;;;3.50;;
59161;SDS011;44942;48.936;8.260;2022-12-24T09:37:17;12.70;;;3.00;;
59161;SDS011;44942;48.936;8.260;2022-12-24T09:42:25;12.68;;;3.10;;
59161;SDS011;44942;48.936;8.260;2022-12-24T09:52:39;15.68;;;3.53;;
59161;SDS011;44942;48.936;8.260;2022-12-24T09:57:43;18.88;;;3.22;;
59161;SDS011;44942;48.936;8.260;2022-12-24T10:02:46;13.20;;;3.67;;
59161;SDS011;44942;48.936;8.260;2022-12-24T10:07:50;16.57;;;5.70;;
59161;SDS011;44942;48.936;8.260;2022-12-24T10:18:06;14.70;;;3.73;;
59161;SDS011;44942;48.936;8.260;2022-12-24T10:23:30;14.50;;;4.82;;
59161;SDS011;44942;48.936;8.260;2022-12-24T10:28:43;14.00;;;4.88;;
59161;SDS011;44942;48.936;8.260;2022-12-24T10:33:55;16.25;;;5.15;;
59161;SDS011;44942;48.936;8.260;2022-12-24T10:39:00;11.43;;;3.65;;
59161;SDS011;44942;48.936;8.260;2022-12-24T10:44:01;12.47;;;3.70;;
59161;SDS011;44942;48.936;8.260;2022-12-24T10:49:05;15.35;;;4.13;;
59161;SDS011;44942;48.936;8.260;2022-12-24T10:54:12;12.77;;;3.80;;
59161;SDS011;44942;48.936;8.260;2022-12-24T10:59:22;16.45;;;3.95;;
59161;SDS011;44942;48.936;8.260;2022-12-24T11:04:44;20.95;;;4.40;;
59161;SDS011;44942;48.936;8.260;2022-12-24T11:09:59;20.20;;;4.10;;
59161;SDS011;44942;48.936;8.260;2022-12-24T11:15:15;16.00;;;5.57;;
59161;SDS011;44942;48.936;8.260;2022-12-24T11:20:27;13.25;;;5.00;;
59161;SDS011;44942;48.936;8.260;2022-12-24T11:25:30;18.58;;;5.05;;
59161;SDS011;44942;48.936;8.260;2022-12-24T11:30:33;15.00;;;4.93;;
59161;SDS011;44942;48.936;8.260;2022-12-24T11:35:38;18.73;;;5.28;;
59161;SDS011;44942;48.936;8.260;2022-12-24T11:40:45;12.93;;;4.90;;
59161;SDS011;44942;48.936;8.260;2022-12-24T11:45:52;13.57;;;4.50;;
59161;SDS011;44942;48.936;8.260;2022-12-24T11:50:55;12.60;;;4.93;;
59161;SDS011;44942;48.936;8.260;2022-12-24T11:56:50;11.88;;;4.88;;
59161;SDS011;44942;48.936;8.260;2022-12-24T12:01:36;12.48;;;4.22;;
59161;SDS011;44942;48.936;8.260;2022-12-24T12:06:54;12.15;;;3.95;;
59161;SDS011;44942;48.936;8.260;2022-12-24T12:12:04;11.13;;;4.10;;
59161;SDS011;44942;48.936;8.260;2022-12-24T12:22:34;10.18;;;3.90;;
59161;SDS011;44942;48.936;8.260;2022-12-24T12:28:01;8.75;;;3.65;;
59161;SDS011;44942;48.936;8.260;2022-12-24T12:33:18;9.93;;;3.50;;
59161;SDS011;44942;48.936;8.260;2022-12-24T12:38:26;11.40;;;3.90;;
59161;SDS011;44942;48.936;8.260;2022-12-24T12:49:11;11.63;;;4.35;;
59161;SDS011;44942;48.936;8.260;2022-12-24T12:59:47;9.30;;;3.08;;
59161;SDS011;44942;48.936;8.260;2022-12-24T13:10:39;7.95;;;3.17;;
59161;SDS011;44942;48.936;8.260;2022-12-24T13:20:52;10.43;;;3.55;;
59161;SDS011;44942;48.936;8.260;2022-12-24T13:25:54;10.73;;;3.17;;
59161;SDS011;44942;48.936;8.260;2022-12-24T13:36:07;10.15;;;4.07;;
59161;SDS011;44942;48.936;8.260;2022-12-24T13:41:37;11.93;;;3.67;;
59161;SDS011;44942;48.936;8.260;2022-12-24T14:02:38;9.95;;;3.80;;
59161;SDS011;44942;48.936;8.260;2022-12-24T14:07:52;9.68;;;3.92;;
59161;SDS011;44942;48.936;8.260;2022-12-24T14:12:55;11.48;;;3.38;;
59161;SDS011;44942;48.936;8.260;2022-12-24T14:17:56;9.53;;;3.57;;
59161;SDS011;44942;48.936;8.260;2022-12-24T14:22:57;11.25;;;3.50;;
59161;SDS011;44942;48.936;8.260;2022-12-24T14:27:59;8.98;;;2.95;;
59161;SDS011;44942;48.936;8.260;2022-12-24T14:33:04;9.00;;;3.47;;
59161;SDS011;44942;48.936;8.260;2022-12-24T14:38:07;6.32;;;3.22;;
59161;SDS011;44942;48.936;8.260;2022-12-24T14:43:17;11.35;;;3.25;;
59161;SDS011;44942;48.936;8.260;2022-12-24T14:53:42;5.80;;;2.55;;
59161;SDS011;44942;48.936;8.260;2022-12-24T14:59:16;8.98;;;2.72;;
59161;SDS011;44942;48.936;8.260;2022-12-24T15:04:18;7.10;;;2.72;;
59161;SDS011;44942;48.936;8.260;2022-12-24T15:09:20;6.77;;;2.43;;
59161;SDS011;44942;48.936;8.260;2022-12-24T15:14:26;14.75;;;3.30;;
59161;SDS011;44942;48.936;8.260;2022-12-24T15:19:38;11.82;;;2.55;;
59161;SDS011;44942;48.936;8.260;2022-12-24T15:24:45;8.63;;;2.97;;
59161;SDS011;44942;48.936;8.260;2022-12-24T15:29:47;5.95;;;2.90;;
59161;SDS011;44942;48.936;8.260;2022-12-24T15:34:53;7.93;;;3.00;;
59161;SDS011;44942;48.936;8.260;2022-12-24T15:39:55;9.48;;;2.88;;
59161;SDS011;44942;48.936;8.260;2022-12-24T15:55:30;7.47;;;2.83;;
59161;SDS011;44942;48.936;8.260;2022-12-24T16:00:43;5.03;;;2.60;;
59161;SDS011;44942;48.936;8.260;2022-12-24T16:11:19;8.55;;;2.78;;
59161;SDS011;44942;48.936;8.260;2022-12-24T16:16:35;6.35;;;2.53;;
59161;SDS011;44942;48.936;8.260;2022-12-24T16:21:45;9.52;;;2.50;;
59161;SDS011;44942;48.936;8.260;2022-12-24T16:26:51;6.65;;;2.33;;
59161;SDS011;44942;48.936;8.260;2022-12-24T16:31:56;6.05;;;2.17;;
59161;SDS011;44942;48.936;8.260;2022-12-24T16:36:58;7.47;;;2.40;;
59161;SDS011;44942;48.936;8.260;2022-12-24T16:42:00;7.20;;;2.92;;
59161;SDS011;44942;48.936;8.260;2022-12-24T16:47:28;6.55;;;2.38;;
59161;SDS011;44942;48.936;8.260;2022-12-24T16:52:31;8.05;;;2.90;;
59161;SDS011;44942;48.936;8.260;2022-12-24T16:57:35;6.40;;;2.55;;
59161;SDS011;44942;48.936;8.260;2022-12-24T17:02:39;6.60;;;2.30;;
59161;SDS011;44942;48.936;8.260;2022-12-24T17:07:39;6.67;;;2.40;;
59161;SDS011;44942;48.936;8.260;2022-12-24T17:12:40;7.40;;;2.50;;
59161;SDS011;44942;48.936;8.260;2022-12-24T17:17:41;8.15;;;2.50;;
59161;SDS011;44942;48.936;8.260;2022-12-24T17:22:42;7.87;;;2.73;;
59161;SDS011;44942;48.936;8.260;2022-12-24T17:27:42;12.27;;;2.50;;
59161;SDS011;44942;48.936;8.260;2022-12-24T17:32:43;11.83;;;2.70;;
59161;SDS011;44942;48.936;8.260;2022-12-24T17:37:44;6.27;;;2.60;;
59161;SDS011;44942;48.936;8.260;2022-12-24T17:42:44;6.80;;;2.30;;
59161;SDS011;44942;48.936;8.260;2022-12-24T17:47:45;8.83;;;2.83;;
59161;SDS011;44942;48.936;8.260;2022-12-24T17:52:45;5.77;;;2.57;;
59161;SDS011;44942;48.936;8.260;2022-12-24T17:57:46;6.27;;;2.30;;
59161;SDS011;44942;48.936;8.260;2022-12-24T18:02:46;5.37;;;2.30;;
59161;SDS011;44942;48.936;8.260;2022-12-24T18:07:47;4.43;;;2.13;;
59161;SDS011;44942;48.936;8.260;2022-12-24T18:12:47;4.32;;;2.10;;
59161;SDS011;44942;48.936;8.260;2022-12-24T18:17:52;5.37;;;2.20;;
59161;SDS011;44942;48.936;8.260;2022-12-24T18:22:54;3.45;;;1.90;;
59161;SDS011;44942;48.936;8.260;2022-12-24T18:27:55;3.97;;;2.13;;
59161;SDS011;44942;48.936;8.260;2022-12-24T18:32:55;4.47;;;2.10;;
59161;SDS011;44942;48.936;8.260;2022-12-24T18:37:56;5.53;;;2.07;;
59161;SDS011;44942;48.936;8.260;2022-12-24T18:42:56;3.57;;;1.87;;
59161;SDS011;44942;48.936;8.260;2022-12-24T18:47:57;5.30;;;1.87;;
59161;SDS011;44942;48.936;8.260;2022-12-24T18:52:58;5.27;;;2.10;;
59161;SDS011;44942;48.936;8.260;2022-12-24T18:57:58;3.40;;;1.77;;
59161;SDS011;44942;48.936;8.260;2022-12-24T19:02:59;4.07;;;2.13;;
59161;SDS011;44942;48.936;8.260;2022-12-24T19:07:59;4.40;;;1.90;;
59161;SDS011;44942;48.936;8.260;2022-12-24T19:13:00;4.30;;;2.00;;
59161;SDS011;44942;48.936;8.260;2022-12-24T19:18:01;2.90;;;1.60;;
59161;SDS011;44942;48.936;8.260;2022-12-24T19:23:02;3.70;;;1.90;;
59161;SDS011;44942;48.936;8.260;2022-12-24T19:28:02;3.27;;;1.87;;
59161;SDS011;44942;48.936;8.260;2022-12-24T19:33:09;4.30;;;1.80;;
59161;SDS011;44942;48.936;8.260;2022-12-24T19:38:10;2.47;;;1.73;;
59161;SDS011;44942;48.936;8.260;2022-12-24T19:43:10;3.53;;;1.80;;
59161;SDS011;44942;48.936;8.260;2022-12-24T19:48:12;3.80;;;1.95;;
59161;SDS011;44942;48.936;8.260;2022-12-24T19:53:12;4.30;;;1.77;;
59161;SDS011;44942;48.936;8.260;2022-12-24T19:58:13;2.60;;;1.73;;
59161;SDS011;44942;48.936;8.260;2022-12-24T20:03:14;3.00;;;1.67;;
59161;SDS011;44942;48.936;8.260;2022-12-24T20:08:14;3.87;;;1.87;;
59161;SDS011;44942;48.936;8.260;2022-12-24T20:13:15;2.70;;;1.50;;
59161;SDS011;44942;48.936;8.260;2022-12-24T20:18:16;2.27;;;1.47;;
59161;SDS011;44942;48.936;8.260;2022-12-24T20:23:16;3.10;;;1.50;;
59161;SDS011;44942;48.936;8.260;2022-12-24T20:28:17;2.50;;;1.57;;
59161;SDS011;44942;48.936;8.260;2022-12-24T20:33:18;2.67;;;1.73;;
59161;SDS011;44942;48.936;8.260;2022-12-24T20:38:18;2.53;;;1.40;;
59161;SDS011;44942;48.936;8.260;2022-12-24T20:43:19;3.47;;;1.60;;
59161;SDS011;44942;48.936;8.260;2022-12-24T20:48:20;2.97;;;1.70;;
59161;SDS011;44942;48.936;8.260;2022-12-24T20:53:21;2.42;;;1.40;;
59161;SDS011;44942;48.936;8.260;2022-12-24T20:58:22;1.90;;;1.40;;
59161;SDS011;44942;48.936;8.260;2022-12-24T21:03:22;2.43;;;1.60;;
59161;SDS011;44942;48.936;8.260;2022-12-24T21:08:23;2.77;;;1.57;;
59161;SDS011;44942;48.936;8.260;2022-12-24T21:13:23;1.80;;;1.30;;
59161;SDS011;44942;48.936;8.260;2022-12-24T21:18:24;3.70;;;1.50;;
59161;SDS011;44942;48.936;8.260;2022-12-24T21:23:24;2.20;;;1.30;;
59161;SDS011;44942;48.936;8.260;2022-12-24T21:28:25;1.40;;;1.30;;
59161;SDS011;44942;48.936;8.260;2022-12-24T21:33:26;1.90;;;1.47;;
59161;SDS011;44942;48.936;8.260;2022-12-24T21:38:26;2.97;;;1.53;;
59161;SDS011;44942;48.936;8.260;2022-12-24T21:43:28;2.27;;;1.50;;
59161;SDS011;44942;48.936;8.260;2022-12-24T21:48:29;2.22;;;1.33;;
59161;SDS011;44942;48.936;8.260;2022-12-24T21:53:48;1.90;;;1.10;;
59161;SDS011;44942;48.936;8.260;2022-12-24T21:59:08;2.28;;;1.27;;
59161;SDS011;44942;48.936;8.260;2022-12-24T22:04:08;1.97;;;1.30;;
59161;SDS011;44942;48.936;8.260;2022-12-24T22:09:09;2.97;;;1.27;;
59161;SDS011;44942;48.936;8.260;2022-12-24T22:14:28;3.17;;;1.20;;
59161;SDS011;44942;48.936;8.260;2022-12-24T22:19:29;2.33;;;1.20;;
59161;SDS011;44942;48.936;8.260;2022-12-24T22:24:29;1.60;;;1.13;;
59161;SDS011;44942;48.936;8.260;2022-12-24T22:29:30;1.20;;;1.00;;
59161;SDS011;44942;48.936;8.260;2022-12-24T22:34:31;1.97;;;1.27;;
59161;SDS011;44942;48.936;8.260;2022-12-24T22:39:31;15.18;;;1.50;;
59161;SDS011;44942;48.936;8.260;2022-12-24T22:44:32;5.82;;;1.20;;
59161;SDS011;44942;48.936;8.260;2022-12-24T22:49:42;7.80;;;1.33;;
59161;SDS011;44942;48.936;8.260;2022-12-24T22:54:42;6.10;;;1.60;;
59161;SDS011;44942;48.936;8.260;2022-12-24T22:59:43;2.88;;;1.13;;
59161;SDS011;44942;48.936;8.260;2022-12-24T23:04:44;8.97;;;1.27;;
59161;SDS011;44942;48.936;8.260;2022-12-24T23:09:44;3.40;;;1.50;;
59161;SDS011;44942;48.936;8.260;2022-12-24T23:14:45;4.10;;;1.20;;
59161;SDS011;44942;48.936;8.260;2022-12-24T23:19:55;2.67;;;1.20;;
59161;SDS011;44942;48.936;8.260;2022-12-24T23:24:55;1.50;;;1.00;;
59161;SDS011;44942;48.936;8.260;2022-12-24T23:29:56;3.00;;;1.17;;
59161;SDS011;44942;48.936;8.260;2022-12-24T23:34:57;3.63;;;1.17;;
59161;SDS011;44942;48.936;8.260;2022-12-24T23:39:57;2.30;;;1.30;;
59161;SDS011;44942;48.936;8.260;2022-12-24T23:44:58;1.63;;;1.00;;
59161;SDS011;44942;48.936;8.260;2022-12-24T23:49:58;1.90;;;1.10;;
59161;SDS011;44942;48.936;8.260;2022-12-24T23:54:59;1.37;;;1.00;;
59161;SDS011;44942;48.936;8.260;2022-12-24T23:59:59;1.13;;;1.00;;
